Mojave Air and Space Port

About
Name: Mojave Air and Space Port
Identifier:  MHV/KMHV
Local Time:  19. Aug 02:43 PDT
Location
Flights per Day
0 flights
Distance: 174km (108mi)
Punctuality
66% (0 flights per day delayed)
Delay Average: 46 minutes
Current Weather
 23 C (Humidity: 33%)
  8kt (14km/h / 9mph) from 250°
  16km (10 mi.)
 
 METAR KMHV 190900Z AUTO 25008KT 10SM CLR 23/06 A2995 RMK A01

Current Flights

Departures
Number Departure To Airline
Arrivals
Number Arrival From Airline

Current Delays

Departures
N/A
Arrivals
N/A

Destinations

Top Destinations
Airport Flights
per week
Seats
per week
  Hawthorne (HHR) 0 - 0 0
  Van Nuys (VNY) 0 - 0 0
  Las Cruces (LRU) 0 - 0 0
  Chino (CNO) 0 - 0 0
  San Diego (MYF) 0 - 0 0
  Long Beach (LGB) 0 - 0 0

Airlines & Planes

Top Airlines
Airline Flights
per Day
Seats
per Day
  National Airlines 0 -
  Flybe Nordic 0 -
  Novair 0 -
Jet Charter Inc ( Franklin Lakes Nj ) 0 -
Top Plane Types
Model Flights Seats
Cessna C172 0.1/day - 0
Beech B200 Super King Air 0.0/day - 0
Piper PA28-181 0.0/day - 0